Aktuální počasí v Česku a ve světě - METAR

Seznam meteostanic umístěných nejčasteji na letišti v ČR a ve světě

Vyhledat místa podle abecedy:
A B C D E F G H I J K L M N O P Q R S T U V W X Y Z

Filtrovat:

ID stanice:
a/nebo
Název místa (fulltext):
 
Místo (ID)Naposledy načteno 
Wake Island (PWAK) 12.05.2021 12:58 UTC Zobrazit METAR
PWAK 121258Z AUTO 07010KT 9999 CLR 26/24 A3002 RMK AO2 SLP172
Warsaw (EPWA) 12.05.2021 14:00 UTC Zobrazit METAR
EPWA 121400Z 12018KT CAVOK 26/08 Q1007 NOSIG
Washington (KIAD) 12.05.2021 13:52 UTC Zobrazit METAR
KIAD 121352Z 35012G20KT 10SM BKN160 BKN250 11/00 A3028 RMK AO2 SLP253 T01060000
Wellington (NZWN) 12.05.2021 14:00 UTC Zobrazit METAR
NZWN 121400Z AUTO 14014G25KT 9999 BKN060/// 11/01 Q1031 NOSIG
Windhoek (FYWH) 12.05.2021 14:00 UTC Zobrazit METAR
FYWH 121400Z 04004KT CAVOK 25/00 Q1025 NOSIG
Wroclaw (EPWR) 12.05.2021 14:00 UTC Zobrazit METAR
EPWR 121400Z 29013KT 9999 FEW032 22/16 Q1004
Reklama

Reklama


Newslettter

Počasí na Váš email

Emaily jsou bez reklamy a bez spamu



Odhlásit newsletter





Zpravodajství o počasí z ČR i ze světa | Aktuálně na Webkamery Slunečno.cz

Všechny články

Další české internetové stránky (nejen) o počasí najdete v katalogu TOPlist - weby o počasí nebo vyhledejte na internetu, co jste tu na Počasí Slunečno Slunečnu zatím nenašli:
Přidat mezzi oblíbené stránkyPřidat Slunečno.cz do oblíbených | Nastavit jako HOMEPAGENastavit Slunečno.cz jako HOMEPAGE

Posunout stránku nahoru Posunout stránku nahoru Posunout stránku nahoru
Reklama